Flight Track Log - Related Links

Times and Time Zones

All times are in EDT time to prevent confusion due to time zone crossing. See the N519JG flight status page for this flight to view local times or setup timezone preferences in your user account.

Time Position Orientation Groundspeed Altitude Reporting Facility
EDT Latitude Longitude Course Direction KTS MPH feet Rate Location/Type
Wed 06:25:07 PM 41.3667 -88.2833 180° South 243 280 3,000  Level Chicago TRACON
Wed 06:26:07 PM 41.3000 -88.2833 180° South 252 290 3,300 1,250 Climbing Chicago TRACON
Wed 06:27:07 PM 41.2333 -88.2333 151° Southeast 244 281 5,500 2,095 Climbing Chicago TRACON
Wed 06:28:13 PM 41.1833 -88.1667 135° Southeast 253 291 7,700 1,911 Climbing Chicago TRACON
Wed 06:29:22 PM 41.1211 -88.1139 147° Southeast 257 296 9,800 1,053 Climbing Chicago Center
Wed 06:30:24 PM 41.0594 -88.0497 142° Southeast 279 321 10,000 242 Climbing Chicago Center
Wed 06:31:26 PM 40.9786 -87.9678 143° Southeast 305 351 10,300 774 Climbing Chicago Center
Wed 06:32:28 PM 40.9122 -87.8986 142° Southeast 306 352 11,600 1,355 Climbing Chicago Center
Wed 06:33:30 PM 40.8478 -87.8333 143° Southeast 296 341 13,100 726 Climbing Chicago Center
Wed 06:34:32 PM 40.7764 -87.7589 142° Southeast 326 375 13,100  Level Chicago Center
Wed 06:35:34 PM 40.7067 -87.6892 143° Southeast 322 371 13,100 823 Level Chicago Center
Wed 06:36:36 PM 40.6231 -87.6053 143° Southeast 317 365 14,800 1,500 Climbing Chicago Center
Wed 06:37:38 PM 40.5533 -87.5350 143° Southeast 319 367 16,200 1,258 Climbing Chicago Center
Wed 06:38:40 PM 40.4822 -87.4631 142° Southeast 324 373 17,400 1,161 Climbing Chicago Center
Wed 06:39:42 PM 40.4133 -87.3981 144° Southeast 328 377 18,600 1,344 Climbing Chicago Center
Wed 06:40:45 PM 40.3264 -87.3119 143° Southeast 328 377 20,200 1,392 Climbing Chicago Center
Wed 06:41:47 PM 40.2533 -87.2389 143° Southeast 330 380 21,500 1,306 Climbing Chicago Center
Wed 06:42:49 PM 40.1808 -87.1672 143° Southeast 330 380 22,900 1,333 Climbing Chicago Center
Wed 06:43:44 PM 40.1078 -87.0931 142° Southeast 329 379 24,100 1,333 Climbing Indianapolis Center
Wed 06:44:46 PM 40.0353 -87.0225 143° Southeast 327 376 25,500 1,152 Climbing Indianapolis Center
Wed 06:45:49 PM 39.9625 -86.9514 143° Southeast 328 377 26,500 1,104 Climbing Indianapolis Center
Wed 06:46:51 PM 39.8900 -86.8797 143° Southeast 329 379 27,800 1,210 Climbing Indianapolis Center
Wed 06:47:53 PM 39.8050 -86.7967 143° Southeast 324 373 29,000 581 Climbing Indianapolis Center
Wed 06:48:55 PM 39.7292 -86.7253 144° Southeast 336 387 29,000  Level Indianapolis Center
Wed 06:49:57 PM 39.6486 -86.6456 143° Southeast 364 419 29,000  Level Indianapolis Center
Wed 06:50:59 PM 39.5647 -86.5653 144° Southeast 377 434 29,000  Level Indianapolis Center
Wed 06:52:01 PM 39.4789 -86.4825 143° Southeast 388 447 29,000  Level Indianapolis Center
Wed 06:53:03 PM 39.3756 -86.3828 143° Southeast 390 449 29,000 532 Level Indianapolis Center
Wed 06:54:05 PM 39.2906 -86.3008 143° Southeast 386 444 30,100 968 Climbing Indianapolis Center
Wed 06:55:07 PM 39.2136 -86.2275 144° Southeast 351 404 31,000 435 Climbing Indianapolis Center
Wed 06:56:09 PM 39.1328 -86.1506 144° Southeast 359 413 31,000  Level Indianapolis Center
Wed 06:57:11 PM 39.0492 -86.0711 144° Southeast 372 428 31,000  Level Indianapolis Center
Wed 06:58:13 PM 38.9464 -85.9739 144° Southeast 384 442 31,000  Level Indianapolis Center
Wed 06:59:15 PM 38.8600 -85.8917 143° Southeast 386 444 31,000  Level Indianapolis Center
Wed 07:00:17 PM 38.7719 -85.8092 144° Southeast 392 451 31,000  Level Indianapolis Center
Wed 07:01:19 PM 38.6844 -85.7264 144° Southeast 392 451 31,000  Level Indianapolis Center
Wed 07:02:21 PM 38.5983 -85.6439 143° Southeast 389 448 31,000  Level Indianapolis Center
Wed 07:03:23 PM 38.5331 -85.5286 126° Southeast 397 457 31,000  Level Indianapolis Center
Wed 07:04:25 PM 38.4597 -85.3903 124° Southeast 394 453 31,000  Level Indianapolis Center
Wed 07:05:27 PM 38.3978 -85.2756 125° Southeast 392 451 31,000  Level Indianapolis Center
Wed 07:06:29 PM 38.3422 -85.1692 124° Southeast 382 440 31,000  Level Indianapolis Center
Wed 07:07:31 PM 38.2750 -85.0392 123° Southeast 376 433 31,000  Level Indianapolis Center
Wed 07:08:33 PM 38.2153 -84.9314 125° Southeast 373 429 31,000  Level Indianapolis Center
Wed 07:09:35 PM 38.1553 -84.8228 125° Southeast 373 429 31,000  Level Indianapolis Center
Wed 07:10:37 PM 38.0961 -84.7114 124° Southeast 377 434 31,000  Level Indianapolis Center
Wed 07:11:39 PM 38.0364 -84.5997 124° Southeast 383 441 31,000  Level Indianapolis Center
Wed 07:12:41 PM 37.9758 -84.4894 125° Southeast 381 438 31,000  Level Indianapolis Center
Wed 07:13:43 PM 37.9250 -84.3464 114° Southeast 384 442 31,000  Level Indianapolis Center
Wed 07:14:45 PM 37.8842 -84.2217 112° Southeast 383 441 31,000  Level Indianapolis Center
Wed 07:15:47 PM 37.8431 -84.0956 112° Southeast 388 447 31,000  Level Indianapolis Center
Wed 07:16:49 PM 37.8019 -83.9700 112° Southeast 387 445 31,000  Level Indianapolis Center
Wed 07:17:51 PM 37.7611 -83.8444 112° Southeast 386 444 31,000  Level Indianapolis Center
Wed 07:18:53 PM 37.7117 -83.6956 113° Southeast 390 449 31,000  Level Indianapolis Center
Wed 07:19:55 PM 37.6700 -83.5700 113° Southeast 388 447 31,000  Level Indianapolis Center
Wed 07:20:57 PM 37.6214 -83.4500 117° Southeast 386 444 31,000  Level Indianapolis Center
Wed 07:21:59 PM 37.5389 -83.3619 140° Southeast 386 444 31,000  Level Indianapolis Center
Wed 07:23:00 PM 37.4494 -83.2842 145° Southeast 389 448 31,000  Level Indianapolis Center
Wed 07:24:02 PM 37.3667 -83.1972 140° Southeast 389 448 31,000 -48 Level Indianapolis Center
Wed 07:25:04 PM 37.2781 -83.0822 134° Southeast 390 449 30,900 -339 Descending Indianapolis Center
Wed 07:26:06 PM 37.2036 -82.9794 132° Southeast 395 455 30,300 -968 Descending Indianapolis Center
Wed 07:27:08 PM 37.1278 -82.8781 133° Southeast 396 456 28,900 -1,432 Descending Indianapolis Center
Wed 07:27:34 PM 37.1014 -82.8417 132° Southeast 388 447 28,200 -1,884 Descending Atlanta Center
Wed 07:28:34 PM 37.0253 -82.7414 134° Southeast 394 453 26,200 -1,850 Descending Atlanta Center
Wed 07:29:34 PM 36.9533 -82.6439 133° Southeast 394 453 24,500 -1,455 Descending Atlanta Center
Wed 07:30:13 PM 36.9050 -82.5797 133° Southeast 381 438 23,800 -772 Descending Indianapolis Center
Wed 07:31:15 PM 36.8347 -82.4861 133° Southeast 370 426 23,200 -741 Descending Indianapolis Center
Wed 07:31:34 PM 36.8092 -82.4547 135° Southeast 372 428 22,800 -911 Descending Atlanta Center
Wed 07:32:34 PM 36.7369 -82.3603 134° Southeast 372 428 22,000 -750 Descending Atlanta Center
Wed 07:33:34 PM 36.6606 -82.2608 134° Southeast 384 442 21,300 -850 Descending Atlanta Center
Wed 07:34:34 PM 36.5819 -82.1592 134° Southeast 401 461 20,300 -1,100 Descending Atlanta Center
Wed 07:35:34 PM 36.5031 -82.0553 133° Southeast 406 467 19,100 -1,250 Descending Atlanta Center
Wed 07:36:34 PM 36.4286 -81.9589 134° Southeast 395 455 17,800 -966 Descending Atlanta Center
Wed 07:38:28 PM 36.2933 -81.7819 133° Southeast 380 437 16,300 -920 Descending Indianapolis Center
Wed 07:39:30 PM 36.2083 -81.6778 135° Southeast 370 426 15,100 -1,161 Descending Indianapolis Center

Login

Don't have an account? Register now (free) for customized features, flight alerts, and more!